Time;durP1;ratioP1;P1;durP2;ratioP2;P2;SDS_P1;SDS_P2;PMS_P1;PMS_P2;Temp;Humidity;BMP_temperature;BMP_pressure;BME280_temperature;BME280_humidity;BME280_pressure;Samples;Min_cycle;Max_cycle;Signal;HPM_P1;HPM_P2
2022/11/20 00:00:06;;;;;;;;;10.40;9.20;;;;;-1.98;78.43;99545.84;5079052;28;9598;-58
2022/11/20 00:02:34;;;;;;;;;13.20;12.80;;;;;-1.96;78.23;99541.44;5079100;28;8844;-58
2022/11/20 00:05:03;;;;;;;;;16.80;12.80;;;;;-1.92;78.12;99536.03;5078970;28;8828;-58
2022/11/20 00:07:30;;;;;;;;;11.00;9.60;;;;;-1.84;78.20;99535.75;5079101;28;9580;-58
2022/11/20 00:09:59;;;;;;;;;12.40;12.40;;;;;-1.74;77.65;99539.75;5080402;28;8831;-58
2022/11/20 00:12:27;;;;;;;;;16.00;13.20;;;;;-1.65;77.70;99534.19;5099111;28;8836;-58
2022/11/20 00:14:54;;;;;;;;;12.40;11.00;;;;;-1.53;77.22;99538.94;5098973;28;8838;-56
2022/11/20 00:17:22;;;;;;;;;10.00;10.00;;;;;-1.42;77.03;99539.38;5098915;28;8833;-58
2022/11/20 00:19:50;;;;;;;;;6.40;6.40;;;;;-1.27;77.06;99541.41;5098713;28;8842;-58
2022/11/20 00:22:18;;;;;;;;;12.60;11.60;;;;;-1.17;77.19;99537.50;5098476;28;8825;-57
2022/11/20 00:24:46;;;;;;;;;3.20;2.60;;;;;-1.07;76.64;99531.03;5116138;28;8934;-58
2022/11/20 00:27:14;;;;;;;;;16.00;9.00;;;;;-0.96;76.86;99534.06;5115429;28;8803;-58
2022/11/20 00:29:42;;;;;;;;;11.20;10.40;;;;;-0.88;75.98;99537.22;5098268;28;8818;-57
2022/11/20 00:32:10;;;;;;;;;15.20;14.80;;;;;-0.80;76.84;99542.97;5078079;28;8860;-58
2022/11/20 00:34:38;;;;;;;;;7.40;7.40;;;;;-0.74;76.40;99530.53;5078311;28;8832;-57
2022/11/20 00:37:06;;;;;;;;;9.40;9.40;;;;;-0.68;76.10;99532.03;5105679;28;8904;-58
2022/11/20 00:39:33;;;;;;;;;16.40;15.40;;;;;-0.60;76.60;99537.78;5118545;28;8923;-56
2022/11/20 00:42:02;;;;;;;;;12.00;12.00;;;;;-0.54;76.33;99537.56;5118883;28;8842;-58
2022/11/20 00:44:29;;;;;;;;;9.00;6.20;;;;;-0.48;75.74;99529.47;5118737;28;8970;-58
2022/11/20 00:46:58;;;;;;;;;10.00;9.40;;;;;-0.40;76.38;99530.81;5118340;28;8844;-59
2022/11/20 00:49:25;;;;;;;;;18.60;16.00;;;;;-0.25;75.37;99532.78;5117500;28;8823;-59
2022/11/20 00:51:53;;;;;;;;;14.20;13.00;;;;;-0.18;75.89;99530.78;5117126;28;8866;-58
2022/11/20 00:54:21;;;;;;;;;12.00;11.60;;;;;-0.13;75.76;99536.63;5117823;28;8847;-58
2022/11/20 00:56:49;;;;;;;;;10.60;10.60;;;;;-0.10;75.41;99523.44;5117900;28;8819;-58
2022/11/20 00:59:17;;;;;;;;;12.40;12.40;;;;;-0.08;75.73;99529.44;5098111;28;8825;-58
2022/11/20 01:01:45;;;;;;;;;8.00;6.40;;;;;-0.07;75.28;99530.22;5098045;28;9577;-58
2022/11/20 01:04:12;;;;;;;;;12.60;11.00;;;;;-0.06;75.06;99523.22;5098128;28;8829;-57
2022/11/20 01:06:41;;;;;;;;;12.80;12.80;;;;;-0.03;75.91;99522.25;5098273;28;8864;-58
2022/11/20 01:09:09;;;;;;;;;10.40;10.20;;;;;-0.01;75.86;99521.25;5097969;28;8821;-57
2022/11/20 01:11:37;;;;;;;;;11.20;9.40;;;;;0.03;75.74;99518.41;5098503;28;8826;-57
2022/11/20 01:14:05;;;;;;;;;6.40;5.20;;;;;0.10;75.35;99519.84;5098481;28;9545;-58
2022/11/20 01:16:33;;;;;;;;;16.40;15.00;;;;;0.14;75.20;99521.44;5097724;28;8826;-58
2022/11/20 01:19:00;;;;;;;;;8.80;5.40;;;;;0.16;75.53;99519.59;5098009;28;8861;-56
2022/11/20 01:21:28;;;;;;;;;9.80;9.80;;;;;0.18;75.54;99522.97;5097481;28;8858;-57
2022/11/20 01:23:56;;;;;;;;;15.60;13.80;;;;;0.21;75.53;99516.75;5108211;28;9461;-58
2022/11/20 01:26:24;;;;;;;;;13.80;12.20;;;;;0.22;75.22;99514.09;5118182;28;8832;-58
2022/11/20 01:28:51;;;;;;;;;13.60;12.40;;;;;0.22;75.35;99508.84;5097634;28;8841;-58
2022/11/20 01:31:19;;;;;;;;;15.40;14.20;;;;;0.25;75.78;99513.94;5097546;28;8822;-58
2022/11/20 01:33:47;;;;;;;;;10.20;9.40;;;;;0.32;75.93;99510.13;5097774;28;8810;-56
2022/11/20 01:36:15;;;;;;;;;13.80;12.00;;;;;0.36;75.31;99516.06;5097691;28;8834;-58
2022/11/20 01:38:43;;;;;;;;;19.20;16.20;;;;;0.37;75.31;99515.16;5097184;28;8844;-56
2022/11/20 01:41:11;;;;;;;;;19.60;16.20;;;;;0.40;75.44;99513.25;5097720;28;9515;-57
2022/11/20 01:43:37;;;;;;;;;8.20;4.80;;;;;0.43;75.42;99518.34;5097176;28;8834;-59
2022/11/20 01:46:05;;;;;;;;;12.40;12.00;;;;;0.46;75.32;99518.19;5097297;28;8838;-56
2022/11/20 01:48:33;;;;;;;;;17.20;11.80;;;;;0.45;75.50;99515.63;5097552;28;9487;-56
2022/11/20 01:51:00;;;;;;;;;10.40;9.60;;;;;0.44;75.16;99517.44;5096895;28;8866;-58
2022/11/20 01:53:28;;;;;;;;;9.60;8.60;;;;;0.40;75.56;99508.00;5103972;28;8824;-57
2022/11/20 01:55:56;;;;;;;;;10.80;10.40;;;;;0.37;75.41;99504.66;5117354;28;8836;-57
2022/11/20 01:58:24;;;;;;;;;13.00;12.80;;;;;0.39;75.82;99497.63;5101249;28;8811;-56
2022/11/20 02:00:52;;;;;;;;;16.40;15.40;;;;;0.39;75.78;99497.63;5096691;28;8821;-58
2022/11/20 02:03:20;;;;;;;;;13.40;12.40;;;;;0.38;75.75;99493.31;5096886;28;8809;-57
2022/11/20 02:05:48;;;;;;;;;14.80;12.80;;;;;0.35;75.67;99491.66;5096637;28;9530;-56
2022/11/20 02:08:15;;;;;;;;;9.20;9.00;;;;;0.38;75.78;99478.44;5095532;28;8826;-56
2022/11/20 02:10:44;;;;;;;;;13.00;12.80;;;;;0.39;75.81;99490.59;5095727;28;8852;-57
2022/11/20 02:15:57;;;;;;;;;14.20;12.40;;;;;0.40;76.12;99468.72;5095932;28;9508;-56
2022/11/20 02:18:24;;;;;;;;;10.60;9.60;;;;;0.44;75.88;99467.69;5095964;28;8853;-58
2022/11/20 02:20:52;;;;;;;;;9.20;8.80;;;;;0.48;76.11;99458.75;5096032;28;8880;-56
2022/11/20 02:23:20;;;;;;;;;15.60;15.20;;;;;0.47;75.48;99464.06;5101757;28;8850;-58
2022/11/20 02:25:48;;;;;;;;;11.00;10.20;;;;;0.48;75.48;99453.50;5116892;28;8808;-58
2022/11/20 02:28:15;;;;;;;;;13.60;12.40;;;;;0.50;75.83;99459.53;5101993;28;8952;-57
2022/11/20 02:30:43;;;;;;;;;10.20;10.20;;;;;0.49;75.78;99457.84;5096115;28;8837;-59
2022/11/20 02:33:11;;;;;;;;;6.00;5.60;;;;;0.50;75.51;99467.41;5096139;28;8826;-58
2022/11/20 02:35:40;;;;;;;;;14.00;11.20;;;;;0.53;75.56;99477.72;5096686;28;8834;-58
2022/11/20 02:38:07;;;;;;;;;7.40;7.00;;;;;0.54;75.34;99468.09;5096610;28;8854;-58
2022/11/20 02:40:35;;;;;;;;;8.40;6.80;;;;;0.56;75.64;99472.34;5096514;28;8822;-59
2022/11/20 02:43:03;;;;;;;;;10.00;9.60;;;;;0.60;75.76;99466.03;5096251;28;8853;-59
2022/11/20 02:45:30;;;;;;;;;16.40;15.20;;;;;0.61;75.67;99465.09;5096705;28;8856;-58
2022/11/20 02:47:58;;;;;;;;;14.20;12.80;;;;;0.65;75.40;99469.28;5096943;28;8822;-59
2022/11/20 02:50:26;;;;;;;;;4.40;4.40;;;;;0.68;75.76;99465.69;5096103;28;8846;-57
2022/11/20 02:52:53;;;;;;;;;9.00;7.80;;;;;0.73;75.44;99463.69;5096608;28;8842;-56
2022/11/20 02:55:21;;;;;;;;;14.20;14.20;;;;;0.79;75.97;99464.25;5115618;28;8824;-59
2022/11/20 02:57:53;;;;;;;;;10.40;9.60;;;;;0.87;75.42;99456.00;5105189;28;8849;-59
2022/11/20 03:00:21;;;;;;;;;18.80;17.00;;;;;0.92;75.37;99449.59;5095648;28;8825;-59
2022/11/20 03:02:49;;;;;;;;;17.40;14.40;;;;;0.98;75.33;99449.31;5096115;28;8822;-59
2022/11/20 03:05:16;;;;;;;;;13.40;13.40;;;;;1.01;74.69;99454.41;5095943;28;8826;-59
2022/11/20 03:07:44;;;;;;;;;9.20;7.00;;;;;1.04;75.70;99453.41;5096124;28;8826;-59
2022/11/20 03:10:13;;;;;;;;;13.80;13.80;;;;;1.04;75.41;99451.66;5095899;28;8806;-59
2022/11/20 03:12:41;;;;;;;;;12.60;12.60;;;;;1.01;75.43;99440.47;5095864;28;8849;-59
2022/11/20 03:15:09;;;;;;;;;16.80;14.60;;;;;1.02;74.63;99439.53;5096157;28;8864;-59
2022/11/20 03:17:37;;;;;;;;;15.80;15.00;;;;;1.01;75.14;99438.66;5095924;28;8830;-59
2022/11/20 03:20:04;;;;;;;;;14.60;12.20;;;;;1.04;75.12;99441.16;5095875;28;8910;-59
2022/11/20 03:22:32;;;;;;;;;15.60;13.00;;;;;1.04;75.60;99445.53;5095810;28;8822;-58
2022/11/20 03:24:59;;;;;;;;;15.00;13.80;;;;;1.07;75.33;99433.13;5115148;28;8831;-59
2022/11/20 03:27:27;;;;;;;;;12.60;12.00;;;;;1.06;75.40;99435.84;5102535;28;8803;-59
2022/11/20 03:29:55;;;;;;;;;13.40;11.20;;;;;1.06;75.51;99444.53;5095976;28;8826;-59
2022/11/20 03:32:22;;;;;;;;;12.80;12.00;;;;;1.07;75.91;99438.38;5095724;28;9476;-59
2022/11/20 03:34:50;;;;;;;;;13.60;12.20;;;;;1.09;75.21;99440.94;5095802;28;8814;-59
2022/11/20 03:37:18;;;;;;;;;7.80;6.00;;;;;1.09;75.25;99438.31;5095375;28;8822;-58
2022/11/20 03:39:46;;;;;;;;;11.00;10.00;;;;;1.08;76.02;99423.50;5095228;28;8824;-57
2022/11/20 03:44:55;;;;;;;;;10.00;9.20;;;;;1.05;75.79;99415.78;5094853;28;8926;-59
2022/11/20 03:47:23;;;;;;;;;9.20;9.00;;;;;1.03;76.18;99413.25;5095976;28;8881;-57
2022/11/20 03:49:51;;;;;;;;;10.00;9.60;;;;;1.03;75.58;99412.41;5095736;28;8838;-59
2022/11/20 03:52:18;;;;;;;;;12.00;11.20;;;;;1.01;75.55;99416.88;5095762;28;8832;-59
2022/11/20 03:54:46;;;;;;;;;16.80;15.00;;;;;0.97;76.14;99413.56;5112844;28;8817;-59
2022/11/20 03:57:14;;;;;;;;;12.60;12.40;;;;;0.98;75.98;99411.78;5104537;28;8812;-59
2022/11/20 03:59:41;;;;;;;;;9.60;9.60;;;;;0.99;76.00;99406.47;5095841;28;8823;-59
2022/11/20 04:02:09;;;;;;;;;15.60;13.00;;;;;1.01;76.19;99411.63;5095329;28;8882;-59
2022/11/20 04:04:37;;;;;;;;;6.80;5.60;;;;;1.01;75.79;99417.69;5095394;28;8823;-57
2022/11/20 04:07:04;;;;;;;;;12.40;12.00;;;;;1.02;75.24;99414.19;5095513;28;8913;-57
2022/11/20 04:09:32;;;;;;;;;15.80;14.20;;;;;1.04;75.89;99416.72;5095589;28;8900;-59
2022/11/20 04:12:00;;;;;;;;;7.80;7.80;;;;;1.04;75.93;99416.72;5097103;28;8823;-59
2022/11/20 04:14:28;;;;;;;;;16.00;15.00;;;;;1.08;76.07;99413.84;5099359;28;8840;-59
2022/11/20 04:16:55;;;;;;;;;13.80;13.00;;;;;1.10;75.53;99412.03;5098765;28;8928;-59
2022/11/20 04:19:23;;;;;;;;;7.00;7.00;;;;;1.11;75.42;99418.97;5098815;28;9519;-59
2022/11/20 04:21:51;;;;;;;;;12.40;11.20;;;;;1.13;75.45;99411.03;5099288;28;8917;-59
2022/11/20 04:24:18;;;;;;;;;12.00;12.00;;;;;1.15;75.86;99412.63;5112048;28;8801;-58
2022/11/20 04:26:46;;;;;;;;;12.20;11.60;;;;;1.17;75.30;99413.41;5111696;28;8840;-58
2022/11/20 04:29:14;;;;;;;;;13.00;13.00;;;;;1.18;75.53;99412.50;5098861;28;8836;-58
2022/11/20 04:31:41;;;;;;;;;15.00;14.20;;;;;1.19;75.47;99408.94;5098857;28;8820;-59
2022/11/20 04:34:09;;;;;;;;;12.20;11.40;;;;;1.21;75.91;99403.63;5098910;28;8820;-59
2022/11/20 04:36:37;;;;;;;;;16.80;15.80;;;;;1.21;75.73;99409.69;5098794;28;8859;-58
2022/11/20 04:39:05;;;;;;;;;18.60;17.20;;;;;1.24;75.25;99409.56;5098314;28;8971;-59
2022/11/20 04:41:33;;;;;;;;;18.00;15.60;;;;;1.26;75.36;99405.09;5098529;28;8828;-58
2022/11/20 04:44:02;;;;;;;;;15.20;14.20;;;;;1.29;75.22;99407.53;5098031;28;8827;-57
2022/11/20 04:46:33;;;;;;;;;11.60;10.00;;;;;1.31;75.29;99403.06;5098013;28;9502;-59
2022/11/20 04:49:01;;;;;;;;;3.00;1.00;;;;;1.34;75.39;99409.91;5097878;28;8827;-59
2022/11/20 04:51:28;;;;;;;;;9.00;7.80;;;;;1.36;76.08;99403.69;5098461;28;8861;-58
2022/11/20 04:53:56;;;;;;;;;10.40;9.40;;;;;1.38;75.98;99404.44;5108760;28;8904;-59
2022/11/20 04:56:23;;;;;;;;;10.00;9.60;;;;;1.37;75.28;99407.16;5114855;28;9447;-58
2022/11/20 04:58:51;;;;;;;;;7.80;7.80;;;;;1.37;75.90;99408.00;5098191;28;8833;-57
2022/11/20 05:01:18;;;;;;;;;12.40;12.20;;;;;1.38;75.56;99408.84;5098516;28;8839;-59
2022/11/20 05:03:47;;;;;;;;;6.00;6.00;;;;;1.38;75.26;99406.22;5098227;28;8814;-59
2022/11/20 05:06:14;;;;;;;;;11.20;10.80;;;;;1.38;75.67;99407.06;5098336;28;8858;-58
2022/11/20 05:08:42;;;;;;;;;6.80;6.80;;;;;1.38;75.18;99411.47;5098335;28;9573;-59
2022/11/20 05:11:09;;;;;;;;;11.60;11.20;;;;;1.39;76.03;99414.03;5097987;28;8826;-59
2022/11/20 05:13:37;;;;;;;;;2.80;2.80;;;;;1.41;75.37;99412.16;5098174;28;8825;-59
2022/11/20 05:16:05;;;;;;;;;9.00;9.00;;;;;1.40;75.95;99413.09;5098435;28;8818;-59
2022/11/20 05:18:33;;;;;;;;;9.40;9.00;;;;;1.43;76.04;99417.31;5098250;28;8822;-58
2022/11/20 05:21:00;;;;;;;;;7.80;7.60;;;;;1.42;75.90;99419.09;5097847;28;8869;-59
2022/11/20 05:23:29;;;;;;;;;9.60;9.20;;;;;1.43;75.80;99410.31;5104170;28;8928;-58
2022/11/20 05:25:58;;;;;;;;;11.40;9.40;;;;;1.45;75.50;99410.22;5118178;28;8808;-56
2022/11/20 05:28:26;;;;;;;;;9.40;7.00;;;;;1.46;75.58;99410.13;5097549;28;8806;-58
2022/11/20 05:30:53;;;;;;;;;13.00;12.60;;;;;1.50;75.54;99405.56;5097857;28;8840;-59
2022/11/20 05:33:21;;;;;;;;;3.40;3.40;;;;;1.53;76.03;99403.66;5097509;28;8828;-59
2022/11/20 05:35:49;;;;;;;;;7.40;6.60;;;;;1.55;75.47;99407.06;5097497;28;8825;-58
2022/11/20 05:38:17;;;;;;;;;8.00;8.00;;;;;1.54;75.96;99404.50;5097880;28;8814;-58
2022/11/20 05:40:45;;;;;;;;;9.40;9.40;;;;;1.55;76.13;99404.44;5097675;28;8857;-57
2022/11/20 05:43:13;;;;;;;;;14.20;12.00;;;;;1.57;75.93;99399.94;5097427;28;8826;-57
2022/11/20 05:45:40;;;;;;;;;9.80;9.80;;;;;1.56;75.75;99400.88;5097420;28;8826;-58
2022/11/20 05:48:08;;;;;;;;;10.00;9.80;;;;;1.51;75.95;99394.19;5097307;28;8887;-59
2022/11/20 05:50:36;;;;;;;;;12.20;11.60;;;;;1.44;75.54;99396.25;5097425;28;8907;-59
2022/11/20 05:53:04;;;;;;;;;9.60;9.60;;;;;1.42;75.83;99395.50;5100017;28;8816;-58
2022/11/20 05:55:31;;;;;;;;;8.60;8.60;;;;;1.39;76.05;99400.91;5117682;28;8839;-57
2022/11/20 05:57:59;;;;;;;;;9.80;7.80;;;;;1.35;76.43;99396.75;5100111;28;8806;-58
2022/11/20 06:00:28;;;;;;;;;12.00;10.40;;;;;1.33;76.41;99393.34;5096790;28;8845;-59
2022/11/20 06:02:55;;;;;;;;;9.20;9.00;;;;;1.30;75.71;99400.53;5096776;28;8914;-58
2022/11/20 06:05:23;;;;;;;;;0.00;0.00;;;;;1.26;76.42;99401.59;5097110;28;8957;-58
2022/11/20 06:07:51;;;;;;;;;11.40;11.40;;;;;1.18;76.56;99393.28;5096824;28;8830;-59
2022/11/20 06:10:19;;;;;;;;;11.20;9.80;;;;;1.13;76.33;99400.53;5096929;28;8922;-59
2022/11/20 06:12:46;;;;;;;;;10.40;9.60;;;;;1.10;77.10;99406.78;5097358;28;9496;-59
2022/11/20 06:15:14;;;;;;;;;12.20;12.20;;;;;1.05;76.80;99400.91;5097195;28;8834;-57
2022/11/20 06:17:42;;;;;;;;;8.00;7.80;;;;;1.00;77.29;99400.28;5096546;28;8849;-59
2022/11/20 06:20:10;;;;;;;;;10.80;9.20;;;;;0.97;76.81;99399.59;5096693;28;8900;-59
2022/11/20 06:22:37;;;;;;;;;11.00;10.60;;;;;0.96;77.08;99406.63;5096907;28;8825;-59
2022/11/20 06:25:06;;;;;;;;;6.40;6.20;;;;;0.95;76.17;99401.44;5116974;28;8900;-59
2022/11/20 06:27:34;;;;;;;;;9.60;9.20;;;;;0.96;76.48;99397.91;5103460;28;8822;-59
2022/11/20 06:30:02;;;;;;;;;9.00;6.60;;;;;0.98;76.57;99399.53;5096723;28;8822;-59
2022/11/20 06:32:30;;;;;;;;;7.80;6.60;;;;;0.96;77.06;99397.91;5096206;28;8814;-59
2022/11/20 06:34:57;;;;;;;;;11.20;9.80;;;;;0.92;77.10;99405.06;5095814;28;8821;-58
2022/11/20 06:37:27;;;;;;;;;6.00;5.60;;;;;0.90;77.25;99406.06;5096394;28;9239;-58
2022/11/20 06:39:55;;;;;;;;;10.60;10.60;;;;;0.88;76.41;99395.69;5096305;28;8830;-59
2022/11/20 06:42:22;;;;;;;;;9.00;7.00;;;;;0.86;77.05;99402.75;5096108;28;8814;-58
2022/11/20 06:44:50;;;;;;;;;13.00;11.60;;;;;0.86;77.44;99404.53;5096288;28;8926;-59
2022/11/20 06:47:17;;;;;;;;;12.00;11.60;;;;;0.83;76.76;99399.44;5096498;28;8837;-58
2022/11/20 06:49:45;;;;;;;;;9.20;7.80;;;;;0.81;77.65;99415.25;5096573;28;8830;-58
2022/11/20 06:52:13;;;;;;;;;8.20;8.20;;;;;0.78;77.56;99414.53;5095730;28;8838;-57
2022/11/20 06:54:42;;;;;;;;;12.00;10.60;;;;;0.73;77.16;99406.03;5112535;28;8832;-58
2022/11/20 06:57:10;;;;;;;;;8.00;8.00;;;;;0.68;77.28;99411.50;5106625;28;9607;-59
2022/11/20 06:59:37;;;;;;;;;11.60;9.60;;;;;0.62;77.62;99409.19;5096113;28;8850;-59
2022/11/20 07:02:05;;;;;;;;;5.60;5.60;;;;;0.55;77.39;99420.88;5095851;28;8872;-59
2022/11/20 07:04:33;;;;;;;;;4.80;3.60;;;;;0.49;77.75;99421.19;5095528;28;8830;-58
2022/11/20 07:07:01;;;;;;;;;12.00;11.20;;;;;0.44;78.04;99415.31;5095964;28;8826;-59
2022/11/20 07:09:29;;;;;;;;;10.80;7.80;;;;;0.41;78.23;99415.47;5095518;28;8826;-59
2022/11/20 07:11:56;;;;;;;;;12.40;9.80;;;;;0.40;77.64;99416.38;5095345;28;8982;-59
2022/11/20 07:14:24;;;;;;;;;9.00;7.00;;;;;0.39;77.83;99422.53;5095337;28;8907;-59
2022/11/20 07:16:52;;;;;;;;;9.20;9.00;;;;;0.35;77.79;99426.22;5095553;28;8810;-59
2022/11/20 07:19:20;;;;;;;;;8.20;6.20;;;;;0.31;78.03;99422.03;5095711;28;8818;-58
2022/11/20 07:21:48;;;;;;;;;10.40;10.00;;;;;0.28;77.69;99424.81;5096172;28;8853;-59
2022/11/20 07:24:16;;;;;;;;;12.40;12.40;;;;;0.26;78.46;99431.03;5108516;28;8824;-58
2022/11/20 07:26:43;;;;;;;;;16.60;11.00;;;;;0.25;77.78;99439.81;5109379;28;8818;-59
2022/11/20 07:29:11;;;;;;;;;12.40;12.40;;;;;0.25;77.92;99442.44;5096003;28;9503;-58
2022/11/20 07:31:39;;;;;;;;;18.40;16.40;;;;;0.26;77.65;99444.13;5095545;28;8830;-59
2022/11/20 07:34:07;;;;;;;;;18.00;16.00;;;;;0.26;77.78;99437.13;5095269;28;8858;-59
2022/11/20 07:36:34;;;;;;;;;3.40;3.40;;;;;0.27;77.61;99441.44;5095386;28;8826;-59
2022/11/20 07:39:03;;;;;;;;;13.00;12.40;;;;;0.29;77.63;99447.44;5095957;28;8840;-59
2022/11/20 07:41:31;;;;;;;;;9.00;7.80;;;;;0.35;77.38;99446.31;5095891;28;8826;-59
2022/11/20 07:43:58;;;;;;;;;9.60;8.60;;;;;0.40;77.59;99447.78;5095476;28;8834;-57
2022/11/20 07:46:26;;;;;;;;;7.00;6.40;;;;;0.47;77.29;99451.81;5098281;28;8876;-59
2022/11/20 07:48:54;;;;;;;;;12.60;12.00;;;;;0.54;77.50;99452.38;5099635;28;9515;-58
2022/11/20 07:51:23;;;;;;;;;9.80;9.00;;;;;0.58;77.32;99443.44;5099331;28;8830;-58
2022/11/20 07:53:51;;;;;;;;;11.40;11.00;;;;;0.65;77.12;99445.72;5108838;28;8859;-58
2022/11/20 07:56:19;;;;;;;;;8.60;7.40;;;;;0.70;77.18;99451.56;5117303;28;8844;-57
2022/11/20 07:58:47;;;;;;;;;9.80;7.80;;;;;0.77;77.54;99445.13;5099049;28;8818;-59
2022/11/20 08:01:15;;;;;;;;;11.80;11.80;;;;;0.82;76.80;99443.13;5099000;28;8841;-58
2022/11/20 08:03:43;;;;;;;;;19.60;17.60;;;;;0.85;77.26;99437.72;5099419;28;8837;-58
2022/11/20 08:06:11;;;;;;;;;20.20;17.20;;;;;0.87;77.21;99442.91;5099205;28;8864;-59
2022/11/20 08:08:40;;;;;;;;;21.40;18.80;;;;;0.87;77.32;99435.91;5099170;28;8842;-59
2022/11/20 08:14:15;;;;;;;;;6.20;6.20;;;;;1.04;76.84;99433.28;5017116;28;8846;-58
2022/11/20 08:16:43;;;;;;;;;17.60;16.80;;;;;1.17;76.34;99439.63;5016697;28;8838;-58
2022/11/20 08:19:11;;;;;;;;;13.80;11.80;;;;;1.37;76.74;99446.50;5057484;28;8960;-59
2022/11/20 08:21:38;;;;;;;;;14.60;14.60;;;;;1.51;76.00;99439.59;5099203;28;8854;-59
2022/11/20 08:24:06;;;;;;;;;13.00;13.00;;;;;1.56;75.53;99437.59;5110379;28;8835;-59
2022/11/20 08:26:35;;;;;;;;;15.80;15.20;;;;;1.57;75.56;99438.44;5115376;28;8834;-58
2022/11/20 08:29:03;;;;;;;;;15.20;12.60;;;;;1.54;75.91;99442.09;5098547;28;8834;-59
2022/11/20 08:31:31;;;;;;;;;14.80;12.40;;;;;1.52;76.31;99430.81;5098405;28;8864;-59
2022/11/20 08:33:59;;;;;;;;;16.40;14.80;;;;;1.56;76.27;99434.13;5098910;28;9491;-59
2022/11/20 08:36:27;;;;;;;;;12.40;12.20;;;;;1.59;75.79;99426.94;5098563;28;8848;-59
2022/11/20 08:38:55;;;;;;;;;13.80;13.40;;;;;1.62;76.32;99426.81;5098311;28;8833;-58
2022/11/20 08:41:26;;;;;;;;;9.00;9.00;;;;;1.63;76.21;99427.63;5109712;28;9481;-59
2022/11/20 08:43:54;;;;;;;;;15.20;14.20;;;;;1.63;76.07;99433.75;5118711;28;8831;-59
2022/11/20 08:46:22;;;;;;;;;12.40;11.80;;;;;1.63;76.16;99431.13;5118983;28;9489;-59
2022/11/20 08:48:50;;;;;;;;;13.80;12.80;;;;;1.64;76.04;99432.81;5118826;28;8832;-59
2022/11/20 08:51:17;;;;;;;;;12.80;12.20;;;;;1.63;76.15;99428.50;5118606;28;8856;-59
2022/11/20 08:53:45;;;;;;;;;12.20;12.20;;;;;1.64;76.08;99422.31;5118468;28;8804;-59
2022/11/20 08:56:13;;;;;;;;;11.20;11.20;;;;;1.67;76.71;99418.69;5118513;28;8842;-58
2022/11/20 08:58:41;;;;;;;;;14.60;12.60;;;;;1.69;76.69;99417.69;5104043;28;8803;-59
2022/11/20 09:01:29;;;;;;;;;8.60;8.60;;;;;1.75;75.82;99419.13;5097614;28;8846;-59
2022/11/20 09:03:57;;;;;;;;;6.80;6.80;;;;;1.79;75.96;99413.63;5098212;28;8862;-58
2022/11/20 09:06:25;;;;;;;;;11.20;11.20;;;;;1.85;76.25;99418.56;5098111;28;8826;-58
2022/11/20 09:08:53;;;;;;;;;9.80;9.20;;;;;1.92;75.53;99419.94;5098126;28;8826;-59
2022/11/20 09:11:20;;;;;;;;;10.80;9.20;;;;;2.00;76.19;99412.50;5097776;28;8899;-59
2022/11/20 09:13:50;;;;;;;;;9.60;8.20;;;;;2.05;75.58;99418.34;5097726;28;8849;-59
2022/11/20 09:16:18;;;;;;;;;9.40;9.40;;;;;2.13;75.48;99421.41;5097450;28;8838;-59
2022/11/20 09:18:46;;;;;;;;;12.00;10.00;;;;;2.20;75.45;99414.06;5097160;28;9496;-59
2022/11/20 09:21:33;;;;;;;;;9.00;9.00;;;;;2.28;75.48;99415.31;5096992;28;8826;-59
2022/11/20 09:24:01;;;;;;;;;11.20;8.80;;;;;2.36;75.79;99415.72;5107646;28;8831;-58
2022/11/20 09:26:29;;;;;;;;;9.20;7.80;;;;;2.44;75.63;99415.34;5116582;28;8831;-59
2022/11/20 09:28:57;;;;;;;;;6.00;6.00;;;;;2.53;75.37;99414.81;5101102;28;8802;-59
2022/11/20 09:31:25;;;;;;;;;8.60;7.40;;;;;2.60;74.69;99413.53;5095367;28;9556;-59
2022/11/20 09:33:53;;;;;;;;;12.20;10.00;;;;;2.69;74.75;99411.25;5095284;28;8941;-59
2022/11/20 09:36:22;;;;;;;;;7.80;6.20;;;;;2.82;74.41;99409.63;5095413;28;8856;-59
2022/11/20 09:38:50;;;;;;;;;10.40;9.20;;;;;2.90;74.67;99396.91;5095820;28;8830;-59
2022/11/20 09:41:18;;;;;;;;;7.80;7.80;;;;;2.98;74.56;99397.28;5096151;28;8830;-59
2022/11/20 09:43:46;;;;;;;;;8.60;8.60;;;;;3.05;74.28;99392.50;5095752;28;8829;-59
2022/11/20 09:46:14;;;;;;;;;6.60;5.00;;;;;3.19;73.82;99387.31;5095871;28;9496;-59
2022/11/20 09:48:42;;;;;;;;;9.80;9.00;;;;;3.34;74.11;99389.84;5095641;28;8841;-57
2022/11/20 09:51:10;;;;;;;;;3.20;3.00;;;;;3.51;73.50;99394.13;5096082;28;8888;-59
2022/11/20 09:53:38;;;;;;;;;14.20;9.80;;;;;3.64;73.71;99390.66;5103779;28;8838;-59
2022/11/20 09:56:07;;;;;;;;;14.00;12.00;;;;;3.81;72.87;99380.78;5116586;28;8843;-60
2022/11/20 09:58:35;;;;;;;;;10.40;9.00;;;;;4.15;72.34;99382.19;5105457;28;9587;-59
2022/11/20 10:01:04;;;;;;;;;9.00;6.60;;;;;4.65;71.64;99372.75;5095691;28;8810;-59
2022/11/20 10:03:33;;;;;;;;;14.20;12.60;;;;;5.45;70.66;99368.19;5096160;28;8814;-59
2022/11/20 10:06:01;;;;;;;;;11.20;11.20;;;;;6.46;69.03;99358.38;5096118;28;8952;-59
2022/11/20 10:08:30;;;;;;;;;14.60;12.00;;;;;7.35;67.00;99355.19;5095830;28;8824;-59
2022/11/20 10:10:58;;;;;;;;;8.20;5.60;;;;;8.14;65.93;99348.88;5096325;28;8844;-59
2022/11/20 10:13:26;;;;;;;;;10.80;9.20;;;;;8.52;65.57;99342.22;5096943;28;8909;-59
2022/11/20 10:15:54;;;;;;;;;16.00;15.20;;;;;8.63;65.66;99342.22;5097191;28;8841;-59
2022/11/20 10:18:22;;;;;;;;;9.60;9.00;;;;;8.81;66.00;99340.69;5095671;28;8982;-59
2022/11/20 10:20:50;;;;;;;;;12.20;9.20;;;;;8.96;65.92;99335.94;5095925;28;8854;-59
2022/11/20 10:23:18;;;;;;;;;4.40;3.60;;;;;8.99;66.15;99339.19;5100690;28;8830;-57
2022/11/20 10:25:52;;;;;;;;;11.40;10.60;;;;;8.71;66.85;99331.81;5111387;28;8814;-55
2022/11/20 10:28:20;;;;;;;;;12.40;12.00;;;;;8.43;67.64;99328.88;5095278;28;8818;-56
2022/11/20 10:30:48;;;;;;;;;9.80;9.60;;;;;8.07;68.56;99332.59;5095289;28;8814;-55
2022/11/20 10:33:16;;;;;;;;;12.20;11.00;;;;;7.77;68.96;99331.53;5095076;28;8923;-56
2022/11/20 10:35:44;;;;;;;;;10.40;9.00;;;;;7.55;69.70;99338.59;5094870;28;8930;-56
2022/11/20 10:38:14;;;;;;;;;9.00;7.00;;;;;7.45;69.79;99342.91;5094978;28;8845;-56
2022/11/20 10:40:42;;;;;;;;;16.20;15.40;;;;;7.26;69.96;99332.03;5095204;28;8838;-56
2022/11/20 10:43:12;;;;;;;;;9.80;8.40;;;;;7.07;70.24;99331.75;5095110;28;8891;-58
2022/11/20 10:45:40;;;;;;;;;12.20;10.40;;;;;6.93;70.34;99334.56;5095410;28;8848;-59
2022/11/20 10:48:08;;;;;;;;;6.00;4.00;;;;;6.74;70.28;99335.09;5095434;28;9525;-59
2022/11/20 10:50:37;;;;;;;;;9.80;9.00;;;;;6.56;70.66;99336.47;5094929;28;8923;-59
2022/11/20 10:53:06;;;;;;;;;12.00;10.40;;;;;6.37;71.71;99335.25;5098381;28;8820;-58
2022/11/20 10:55:34;;;;;;;;;8.60;8.60;;;;;6.15;71.61;99333.28;5115890;28;8875;-58
2022/11/20 10:58:02;;;;;;;;;8.20;7.00;;;;;6.02;71.65;99343.06;5115320;28;8966;-58
2022/11/20 11:00:30;;;;;;;;;10.40;10.00;;;;;6.01;72.02;99341.34;5097613;28;8829;-59
2022/11/20 11:03:02;;;;;;;;;4.80;4.80;;;;;5.96;71.87;99337.34;5094770;28;8880;-59
2022/11/20 11:05:30;;;;;;;;;8.00;4.80;;;;;5.93;71.88;99327.84;5094546;28;8822;-59
2022/11/20 11:07:58;;;;;;;;;5.60;5.60;;;;;5.92;71.96;99333.25;5095129;28;8822;-57
2022/11/20 11:10:26;;;;;;;;;9.80;7.00;;;;;5.92;71.83;99333.25;5095085;28;8826;-59
2022/11/20 11:12:54;;;;;;;;;10.80;9.40;;;;;5.88;71.86;99329.97;5094812;28;8901;-58
2022/11/20 11:15:26;;;;;;;;;6.20;6.20;;;;;5.85;71.70;99324.91;5095138;28;8849;-58
2022/11/20 11:17:54;;;;;;;;;6.40;6.40;;;;;5.79;72.21;99329.75;5095175;28;8826;-59
2022/11/20 11:20:22;;;;;;;;;11.20;10.00;;;;;5.68;71.97;99329.66;5096349;28;8858;-59
2022/11/20 11:22:50;;;;;;;;;6.00;6.00;;;;;5.55;72.18;99329.66;5100595;28;9554;-57
2022/11/20 11:25:18;;;;;;;;;6.40;4.80;;;;;5.44;72.68;99332.19;5120308;28;8985;-59
2022/11/20 11:27:46;;;;;;;;;6.40;6.00;;;;;5.40;72.12;99311.41;5119561;28;8831;-57
2022/11/20 11:30:14;;;;;;;;;7.00;6.20;;;;;5.41;72.67;99305.97;5102757;28;8810;-58
2022/11/20 11:32:42;;;;;;;;;5.60;5.60;;;;;5.41;72.76;99300.69;5097859;28;9911;-59
2022/11/20 11:35:10;;;;;;;;;4.80;3.60;;;;;5.41;72.58;99308.63;5097852;28;9570;-60
2022/11/20 11:37:38;;;;;;;;;9.80;9.00;;;;;5.40;72.07;99300.84;5097133;28;9600;-58
2022/11/20 11:40:06;;;;;;;;;9.60;9.00;;;;;5.37;72.38;99295.75;5096801;28;9694;-59
2022/11/20 11:42:51;;;;;;;;;11.60;7.80;;;;;5.37;72.69;99293.09;5097123;28;8833;-59
2022/11/20 11:45:18;;;;;;;;;8.60;8.60;;;;;5.35;72.26;99287.09;5096627;28;8845;-59
2022/11/20 11:47:46;;;;;;;;;10.60;10.60;;;;;5.35;71.98;99284.47;5096950;28;8866;-58
2022/11/20 11:50:14;;;;;;;;;10.00;9.20;;;;;5.36;72.01;99284.38;5097035;28;8866;-58